CheckWX is a tool to help pilots better visualize weather data.  It is not intended as a substitute for an official pre-flight weather briefing.

12:10:51 UTC

KASW METAR
Warsaw Municipal Airport
Warsaw, Indiana, USA
Current

16 mins ago

KASW 251155Z AUTO 05011G15KT 5SM BR OVC006 01/00 A2981 RMK AO2
Observed
Feb-25 @ 11:55 UTC
Wind
  • 050° at 11 KTS
  • Gusting to 15 KTS
Visibility
5 SM
Flight Rules
IFR
Conditions
Mist
Cloud Levels
  • Overcast at 600' AGL
Temperature
C / 34°F
Dewpoint
C / 32°F
Humidity
93%
Altimeter
29.81" Hg
Pressure
1009.52 hPa
Previous

36 mins ago

KASW 251135Z AUTO 05008KT 5SM BR OVC006 01/01 A2980 RMK AO2
Observed
Feb-25 @ 11:35 UTC
Wind
  • 050° at 8 KTS
Visibility
5 SM
Flight Rules
IFR
Conditions
Mist
Cloud Levels
  • Overcast at 600' AGL
Temperature
C / 34°F
Dewpoint
C / 34°F
Humidity
100%
Altimeter
29.8" Hg
Pressure
1009.12 hPa
Previous

56 mins ago

KASW 251115Z AUTO 05009KT 5SM BR OVC006 02/01 A2980 RMK AO2
Observed
Feb-25 @ 11:15 UTC
Wind
  • 050° at 9 KTS
Visibility
5 SM
Flight Rules
IFR
Conditions
Mist
Cloud Levels
  • Overcast at 600' AGL
Temperature
C / 36°F
Dewpoint
C / 34°F
Humidity
93%
Altimeter
29.8" Hg
Pressure
1009.12 hPa